Airfield :
LOGIN :

Register | Disclaimer

   EN    FR    IT 

 










Legend :    VFR   Marginal VFR   IFR   Intensive IFR   Very Intensive IFR
Visi :
Ceiling :
>= 8 km
>= 3000ft
5 to 8 km
1000 to 3000 ft
1500m to 5 km
500 to 1000 ft
800 to 1500m
200 to 500 ft
< 800m
< 200 ft
Symbols :   Thunderstorms  Fog  Heavy snow  Heavy precipitations  Wind > 20 kt
SIGMETs :     Misc.  Thunderstorms  Icing  Turbulence  Mountain Waves  Volcanic Ashes







- Airport Elevation : 821 ft
- IATA code : LYS
- Download approach charts


LFLL - Lyon St Exupéry / Satolas

CURRENT METAR :
  • 240830Z 01007KT 340V040 9999 SCT032 BKN040 24/17 Q1020 NOSIG

EXPIRED METARs :
  • 240800Z 02009KT 330V050 9999 SCT030 BKN038 24/16 Q1020 NOSIG
  • 240730Z 36006KT 330V040 9999 SCT026 BKN038 23/17 Q1020 NOSIG
  • 240714Z 02008KT 9999 BKN036 23/17 Q1020 NOSIG
  • 240630Z 35007KT 9999 BKN036 23/17 Q1020 NOSIG
  • 240600Z 36006KT 9999 BKN036 23/17 Q1020 NOSIG
  • 240530Z 36005KT 9999 BKN038 23/17 Q1020 NOSIG

TAF TAF LFLL
Valid from the 23 at 18:00 until the 25 at 00:00 UTC


231700Z 2318/2424 36012KT CAVOK
TEMPO 2318/2321 FEW060CB
PROB40
TEMPO 2318/2321 VRB20G30KT 3000 TSRA BKN060CB
TEMPO 2321/2408 VRB02KT
TEMPO 2417/2422 FEW060CB
PROB40
TEMPO 2418/2422 VRB15G30KT 3000 TSRA BKN060CB
No reported NOTAMs for that airfield.



MET'MAP, your aeronautical weather chart ! - Copyright ORBIFLY December 2007 - Disclaimer

ORBIFLY MET'MAP TEAM :

Programming & Development : Alexandra Zaïnal
Concept & Development : Baudouin d'Aumeries
Co-Development & Prog : Marc-Olivier Méhu
Technical & hardware support : Manuel Goepfert

Contact : metmap@orbifly.com




SOURCES & CREDITS :

   NOAA